sensor_id;sensor_type;location;lat;lon;timestamp;temperature;humidity
23560;DHT22;11958;50.836;4.438;2023-05-07T00:00:23;16.70;79.40
23560;DHT22;11958;50.836;4.438;2023-05-07T00:03:07;16.60;79.30
23560;DHT22;11958;50.836;4.438;2023-05-07T00:05:32;16.60;79.60
23560;DHT22;11958;50.836;4.438;2023-05-07T00:07:58;16.40;80.10
23560;DHT22;11958;50.836;4.438;2023-05-07T00:10:39;16.80;79.20
23560;DHT22;11958;50.836;4.438;2023-05-07T00:13:05;16.70;78.90
23560;DHT22;11958;50.836;4.438;2023-05-07T00:15:47;16.90;78.40
23560;DHT22;11958;50.836;4.438;2023-05-07T00:18:19;17.10;77.90
23560;DHT22;11958;50.836;4.438;2023-05-07T00:20:47;16.80;78.30
23560;DHT22;11958;50.836;4.438;2023-05-07T00:23:13;16.50;79.30
23560;DHT22;11958;50.836;4.438;2023-05-07T00:25:39;16.40;79.70
23560;DHT22;11958;50.836;4.438;2023-05-07T00:28:05;16.40;80.00
23560;DHT22;11958;50.836;4.438;2023-05-07T00:30:30;16.70;79.30
23560;DHT22;11958;50.836;4.438;2023-05-07T00:32:56;16.80;78.80
23560;DHT22;11958;50.836;4.438;2023-05-07T00:35:22;16.60;79.10
23560;DHT22;11958;50.836;4.438;2023-05-07T00:37:47;16.50;79.00
23560;DHT22;11958;50.836;4.438;2023-05-07T00:40:14;16.50;80.00
23560;DHT22;11958;50.836;4.438;2023-05-07T00:42:40;16.60;79.30
23560;DHT22;11958;50.836;4.438;2023-05-07T00:45:06;16.50;79.50
23560;DHT22;11958;50.836;4.438;2023-05-07T00:47:34;16.40;79.70
23560;DHT22;11958;50.836;4.438;2023-05-07T00:50:00;16.50;79.50
23560;DHT22;11958;50.836;4.438;2023-05-07T00:52:26;16.40;80.20
23560;DHT22;11958;50.836;4.438;2023-05-07T00:54:53;16.40;80.20
23560;DHT22;11958;50.836;4.438;2023-05-07T00:57:20;16.90;78.60
23560;DHT22;11958;50.836;4.438;2023-05-07T00:59:47;17.00;78.00
23560;DHT22;11958;50.836;4.438;2023-05-07T01:02:12;16.60;78.70
23560;DHT22;11958;50.836;4.438;2023-05-07T01:04:38;16.70;78.30
23560;DHT22;11958;50.836;4.438;2023-05-07T01:07:04;16.80;78.50
23560;DHT22;11958;50.836;4.438;2023-05-07T01:09:31;16.90;77.70
23560;DHT22;11958;50.836;4.438;2023-05-07T01:11:57;17.10;77.20
23560;DHT22;11958;50.836;4.438;2023-05-07T01:14:24;17.10;77.00
23560;DHT22;11958;50.836;4.438;2023-05-07T01:16:51;17.00;77.50
23560;DHT22;11958;50.836;4.438;2023-05-07T01:19:18;16.60;78.50
23560;DHT22;11958;50.836;4.438;2023-05-07T01:21:48;16.50;78.60
23560;DHT22;11958;50.836;4.438;2023-05-07T01:24:14;16.70;78.30
23560;DHT22;11958;50.836;4.438;2023-05-07T01:26:40;16.90;78.10
23560;DHT22;11958;50.836;4.438;2023-05-07T01:29:06;17.10;77.50
23560;DHT22;11958;50.836;4.438;2023-05-07T01:31:33;17.10;76.90
23560;DHT22;11958;50.836;4.438;2023-05-07T01:34:00;17.00;77.30
23560;DHT22;11958;50.836;4.438;2023-05-07T01:36:28;16.60;78.10
23560;DHT22;11958;50.836;4.438;2023-05-07T01:38:55;16.60;78.30
23560;DHT22;11958;50.836;4.438;2023-05-07T01:41:23;17.00;77.60
23560;DHT22;11958;50.836;4.438;2023-05-07T01:43:50;16.90;77.70
23560;DHT22;11958;50.836;4.438;2023-05-07T01:46:17;16.60;78.10
23560;DHT22;11958;50.836;4.438;2023-05-07T01:48:44;16.70;78.60
23560;DHT22;11958;50.836;4.438;2023-05-07T01:51:16;16.40;78.90
23560;DHT22;11958;50.836;4.438;2023-05-07T01:53:42;16.30;79.70
23560;DHT22;11958;50.836;4.438;2023-05-07T01:56:09;16.10;80.40
23560;DHT22;11958;50.836;4.438;2023-05-07T01:58:35;16.30;80.60
23560;DHT22;11958;50.836;4.438;2023-05-07T02:01:01;16.30;80.40
23560;DHT22;11958;50.836;4.438;2023-05-07T02:03:26;16.30;80.00
23560;DHT22;11958;50.836;4.438;2023-05-07T02:05:52;16.20;80.50
23560;DHT22;11958;50.836;4.438;2023-05-07T02:08:18;16.30;80.40
23560;DHT22;11958;50.836;4.438;2023-05-07T02:10:43;16.40;80.50
23560;DHT22;11958;50.836;4.438;2023-05-07T02:13:09;16.50;79.70
23560;DHT22;11958;50.836;4.438;2023-05-07T02:15:35;16.50;79.70
23560;DHT22;11958;50.836;4.438;2023-05-07T02:18:02;16.50;79.40
23560;DHT22;11958;50.836;4.438;2023-05-07T02:20:28;16.20;79.90
23560;DHT22;11958;50.836;4.438;2023-05-07T02:22:54;16.20;80.30
23560;DHT22;11958;50.836;4.438;2023-05-07T02:25:20;16.10;80.90
23560;DHT22;11958;50.836;4.438;2023-05-07T02:27:45;16.00;80.40
23560;DHT22;11958;50.836;4.438;2023-05-07T02:30:11;16.00;80.40
23560;DHT22;11958;50.836;4.438;2023-05-07T02:32:37;16.10;79.90
23560;DHT22;11958;50.836;4.438;2023-05-07T02:35:03;15.80;80.30
23560;DHT22;11958;50.836;4.438;2023-05-07T02:37:28;15.70;81.10
23560;DHT22;11958;50.836;4.438;2023-05-07T02:39:54;15.70;81.00
23560;DHT22;11958;50.836;4.438;2023-05-07T02:42:20;15.80;80.40
23560;DHT22;11958;50.836;4.438;2023-05-07T02:44:46;15.80;80.50
23560;DHT22;11958;50.836;4.438;2023-05-07T02:47:12;16.00;79.50
23560;DHT22;11958;50.836;4.438;2023-05-07T02:49:38;15.90;79.70
23560;DHT22;11958;50.836;4.438;2023-05-07T02:52:04;16.10;79.20
23560;DHT22;11958;50.836;4.438;2023-05-07T02:54:30;16.30;78.50
23560;DHT22;11958;50.836;4.438;2023-05-07T02:56:56;16.10;78.90
23560;DHT22;11958;50.836;4.438;2023-05-07T02:59:23;15.70;80.20
23560;DHT22;11958;50.836;4.438;2023-05-07T03:04:51;15.80;80.80
23560;DHT22;11958;50.836;4.438;2023-05-07T03:07:17;15.80;80.90
23560;DHT22;11958;50.836;4.438;2023-05-07T03:09:45;15.70;81.40
23560;DHT22;11958;50.836;4.438;2023-05-07T03:12:30;15.70;81.70
23560;DHT22;11958;50.836;4.438;2023-05-07T03:14:56;15.60;81.90
23560;DHT22;11958;50.836;4.438;2023-05-07T03:17:26;15.60;82.30
23560;DHT22;11958;50.836;4.438;2023-05-07T03:19:57;15.60;82.50
23560;DHT22;11958;50.836;4.438;2023-05-07T03:22:23;15.90;81.60
23560;DHT22;11958;50.836;4.438;2023-05-07T03:24:49;15.90;81.90
23560;DHT22;11958;50.836;4.438;2023-05-07T03:27:19;16.20;79.70
23560;DHT22;11958;50.836;4.438;2023-05-07T03:29:44;16.30;80.00
23560;DHT22;11958;50.836;4.438;2023-05-07T03:32:10;16.20;79.70
23560;DHT22;11958;50.836;4.438;2023-05-07T03:34:36;16.50;79.00
23560;DHT22;11958;50.836;4.438;2023-05-07T03:37:01;16.50;79.30
23560;DHT22;11958;50.836;4.438;2023-05-07T03:39:27;16.30;79.30
23560;DHT22;11958;50.836;4.438;2023-05-07T03:41:53;16.10;80.10
23560;DHT22;11958;50.836;4.438;2023-05-07T03:44:18;15.90;81.10
23560;DHT22;11958;50.836;4.438;2023-05-07T03:46:44;15.80;81.50
23560;DHT22;11958;50.836;4.438;2023-05-07T03:49:10;15.80;81.70
23560;DHT22;11958;50.836;4.438;2023-05-07T03:51:35;15.80;81.80
23560;DHT22;11958;50.836;4.438;2023-05-07T03:54:01;15.80;81.80
23560;DHT22;11958;50.836;4.438;2023-05-07T03:56:27;15.90;81.50
23560;DHT22;11958;50.836;4.438;2023-05-07T03:58:53;16.10;81.10
23560;DHT22;11958;50.836;4.438;2023-05-07T04:01:19;16.20;79.90
23560;DHT22;11958;50.836;4.438;2023-05-07T04:03:45;16.40;79.20
23560;DHT22;11958;50.836;4.438;2023-05-07T04:06:10;16.40;79.00
23560;DHT22;11958;50.836;4.438;2023-05-07T04:08:37;16.40;78.90
23560;DHT22;11958;50.836;4.438;2023-05-07T04:11:03;16.10;79.80
23560;DHT22;11958;50.836;4.438;2023-05-07T04:13:29;15.80;80.90
23560;DHT22;11958;50.836;4.438;2023-05-07T04:15:56;15.60;81.70
23560;DHT22;11958;50.836;4.438;2023-05-07T04:18:21;15.90;81.40
23560;DHT22;11958;50.836;4.438;2023-05-07T04:20:48;16.00;81.40
23560;DHT22;11958;50.836;4.438;2023-05-07T04:23:15;16.10;80.70
23560;DHT22;11958;50.836;4.438;2023-05-07T04:25:41;16.30;80.20
23560;DHT22;11958;50.836;4.438;2023-05-07T04:28:07;16.10;80.20
23560;DHT22;11958;50.836;4.438;2023-05-07T04:30:32;16.20;80.00
23560;DHT22;11958;50.836;4.438;2023-05-07T04:32:58;16.10;80.20
23560;DHT22;11958;50.836;4.438;2023-05-07T04:35:24;16.00;81.00
23560;DHT22;11958;50.836;4.438;2023-05-07T04:37:49;15.80;81.60
23560;DHT22;11958;50.836;4.438;2023-05-07T04:40:15;16.00;81.40
23560;DHT22;11958;50.836;4.438;2023-05-07T04:42:41;16.00;81.00
23560;DHT22;11958;50.836;4.438;2023-05-07T04:45:07;15.90;81.10
23560;DHT22;11958;50.836;4.438;2023-05-07T04:47:34;16.20;80.60
23560;DHT22;11958;50.836;4.438;2023-05-07T04:50:00;16.50;79.50
23560;DHT22;11958;50.836;4.438;2023-05-07T04:52:25;16.60;79.10
23560;DHT22;11958;50.836;4.438;2023-05-07T04:54:52;16.50;79.50
23560;DHT22;11958;50.836;4.438;2023-05-07T04:57:17;16.70;79.00
23560;DHT22;11958;50.836;4.438;2023-05-07T04:59:44;16.70;78.80
23560;DHT22;11958;50.836;4.438;2023-05-07T05:02:12;16.50;79.50
23560;DHT22;11958;50.836;4.438;2023-05-07T05:04:38;16.30;80.50
23560;DHT22;11958;50.836;4.438;2023-05-07T05:07:03;16.50;79.70
23560;DHT22;11958;50.836;4.438;2023-05-07T05:09:30;16.70;79.30
23560;DHT22;11958;50.836;4.438;2023-05-07T05:11:55;16.50;79.50
23560;DHT22;11958;50.836;4.438;2023-05-07T05:14:21;16.40;79.80
23560;DHT22;11958;50.836;4.438;2023-05-07T05:16:47;16.10;81.10
23560;DHT22;11958;50.836;4.438;2023-05-07T05:19:12;16.20;81.70
23560;DHT22;11958;50.836;4.438;2023-05-07T05:21:38;16.30;81.80
23560;DHT22;11958;50.836;4.438;2023-05-07T05:24:04;16.50;80.50
23560;DHT22;11958;50.836;4.438;2023-05-07T05:26:30;16.30;81.30
23560;DHT22;11958;50.836;4.438;2023-05-07T05:28:55;16.40;81.60
23560;DHT22;11958;50.836;4.438;2023-05-07T05:31:21;16.50;81.30
23560;DHT22;11958;50.836;4.438;2023-05-07T05:33:47;16.80;80.30
23560;DHT22;11958;50.836;4.438;2023-05-07T05:36:12;17.20;78.10
23560;DHT22;11958;50.836;4.438;2023-05-07T05:38:39;17.30;77.80
23560;DHT22;11958;50.836;4.438;2023-05-07T05:41:05;17.20;77.40
23560;DHT22;11958;50.836;4.438;2023-05-07T05:43:31;17.20;77.70
23560;DHT22;11958;50.836;4.438;2023-05-07T05:45:57;17.20;77.70
23560;DHT22;11958;50.836;4.438;2023-05-07T05:48:23;17.30;77.70
23560;DHT22;11958;50.836;4.438;2023-05-07T05:50:49;17.60;77.30
23560;DHT22;11958;50.836;4.438;2023-05-07T05:53:14;17.90;76.30
23560;DHT22;11958;50.836;4.438;2023-05-07T05:55:41;17.90;75.80
23560;DHT22;11958;50.836;4.438;2023-05-07T05:58:08;17.30;76.70
23560;DHT22;11958;50.836;4.438;2023-05-07T06:00:34;17.30;77.30
23560;DHT22;11958;50.836;4.438;2023-05-07T06:02:59;17.40;77.10
23560;DHT22;11958;50.836;4.438;2023-05-07T06:05:25;17.00;78.30
23560;DHT22;11958;50.836;4.438;2023-05-07T06:07:51;16.70;80.00
23560;DHT22;11958;50.836;4.438;2023-05-07T06:10:16;17.00;80.10
23560;DHT22;11958;50.836;4.438;2023-05-07T06:12:42;17.30;78.60
23560;DHT22;11958;50.836;4.438;2023-05-07T06:15:08;16.90;77.90
23560;DHT22;11958;50.836;4.438;2023-05-07T06:17:34;16.80;79.10
23560;DHT22;11958;50.836;4.438;2023-05-07T06:20:00;16.60;79.80
23560;DHT22;11958;50.836;4.438;2023-05-07T06:22:25;16.50;80.20
23560;DHT22;11958;50.836;4.438;2023-05-07T06:24:51;16.80;79.70
23560;DHT22;11958;50.836;4.438;2023-05-07T06:27:17;17.00;79.00
23560;DHT22;11958;50.836;4.438;2023-05-07T06:29:42;17.00;78.80
23560;DHT22;11958;50.836;4.438;2023-05-07T06:32:11;17.70;76.40
23560;DHT22;11958;50.836;4.438;2023-05-07T06:34:38;17.50;76.50
23560;DHT22;11958;50.836;4.438;2023-05-07T06:37:04;17.40;76.30
23560;DHT22;11958;50.836;4.438;2023-05-07T06:39:30;17.20;76.60
23560;DHT22;11958;50.836;4.438;2023-05-07T06:41:56;17.30;76.60
23560;DHT22;11958;50.836;4.438;2023-05-07T06:44:22;17.70;76.20
23560;DHT22;11958;50.836;4.438;2023-05-07T06:46:48;17.50;76.60
23560;DHT22;11958;50.836;4.438;2023-05-07T06:49:14;17.50;77.20
23560;DHT22;11958;50.836;4.438;2023-05-07T06:51:39;17.30;77.00
23560;DHT22;11958;50.836;4.438;2023-05-07T06:54:14;17.20;77.90
23560;DHT22;11958;50.836;4.438;2023-05-07T06:56:40;17.20;78.20
23560;DHT22;11958;50.836;4.438;2023-05-07T06:59:07;17.40;78.20
23560;DHT22;11958;50.836;4.438;2023-05-07T07:01:32;17.00;79.20
23560;DHT22;11958;50.836;4.438;2023-05-07T07:03:58;16.90;79.80
23560;DHT22;11958;50.836;4.438;2023-05-07T07:06:24;16.90;80.40
23560;DHT22;11958;50.836;4.438;2023-05-07T07:08:50;17.10;80.60
23560;DHT22;11958;50.836;4.438;2023-05-07T07:11:16;16.90;80.80
23560;DHT22;11958;50.836;4.438;2023-05-07T07:13:42;16.80;80.90
23560;DHT22;11958;50.836;4.438;2023-05-07T07:16:08;16.80;80.60
23560;DHT22;11958;50.836;4.438;2023-05-07T07:18:34;16.80;81.70
23560;DHT22;11958;50.836;4.438;2023-05-07T07:21:01;16.90;82.20
23560;DHT22;11958;50.836;4.438;2023-05-07T07:23:26;17.00;81.90
23560;DHT22;11958;50.836;4.438;2023-05-07T07:25:52;17.10;82.20
23560;DHT22;11958;50.836;4.438;2023-05-07T07:28:20;17.10;82.60
23560;DHT22;11958;50.836;4.438;2023-05-07T07:30:46;17.20;82.40
23560;DHT22;11958;50.836;4.438;2023-05-07T07:33:12;17.40;82.10
23560;DHT22;11958;50.836;4.438;2023-05-07T07:35:37;17.40;81.50
23560;DHT22;11958;50.836;4.438;2023-05-07T07:38:03;17.50;81.80
23560;DHT22;11958;50.836;4.438;2023-05-07T07:40:29;17.60;82.00
23560;DHT22;11958;50.836;4.438;2023-05-07T07:42:56;17.50;81.80
23560;DHT22;11958;50.836;4.438;2023-05-07T07:45:22;17.60;82.30
23560;DHT22;11958;50.836;4.438;2023-05-07T07:47:47;17.60;82.20
23560;DHT22;11958;50.836;4.438;2023-05-07T07:50:13;17.40;83.10
23560;DHT22;11958;50.836;4.438;2023-05-07T07:52:39;17.80;82.70
23560;DHT22;11958;50.836;4.438;2023-05-07T07:55:05;17.80;82.00
23560;DHT22;11958;50.836;4.438;2023-05-07T07:57:31;17.90;82.30
23560;DHT22;11958;50.836;4.438;2023-05-07T07:59:56;18.00;81.90
23560;DHT22;11958;50.836;4.438;2023-05-07T08:02:22;18.20;80.50
23560;DHT22;11958;50.836;4.438;2023-05-07T08:04:48;18.00;81.90
23560;DHT22;11958;50.836;4.438;2023-05-07T08:07:13;18.10;82.20
23560;DHT22;11958;50.836;4.438;2023-05-07T08:09:40;18.20;81.30
23560;DHT22;11958;50.836;4.438;2023-05-07T08:12:06;18.10;81.70
23560;DHT22;11958;50.836;4.438;2023-05-07T08:14:33;18.20;81.10
23560;DHT22;11958;50.836;4.438;2023-05-07T08:16:58;18.10;82.80
23560;DHT22;11958;50.836;4.438;2023-05-07T08:19:24;18.10;82.60
23560;DHT22;11958;50.836;4.438;2023-05-07T08:21:50;18.00;82.10
23560;DHT22;11958;50.836;4.438;2023-05-07T08:24:16;18.10;82.20
23560;DHT22;11958;50.836;4.438;2023-05-07T08:26:43;17.90;82.60
23560;DHT22;11958;50.836;4.438;2023-05-07T08:29:08;18.30;81.20
23560;DHT22;11958;50.836;4.438;2023-05-07T08:31:34;18.50;80.70
23560;DHT22;11958;50.836;4.438;2023-05-07T08:34:00;18.20;81.30
23560;DHT22;11958;50.836;4.438;2023-05-07T08:36:26;18.20;81.80
23560;DHT22;11958;50.836;4.438;2023-05-07T08:38:52;18.20;81.50
23560;DHT22;11958;50.836;4.438;2023-05-07T08:41:18;18.10;83.50
23560;DHT22;11958;50.836;4.438;2023-05-07T08:43:48;18.20;82.00
23560;DHT22;11958;50.836;4.438;2023-05-07T08:46:20;18.40;81.20
23560;DHT22;11958;50.836;4.438;2023-05-07T08:48:50;18.50;81.40
23560;DHT22;11958;50.836;4.438;2023-05-07T08:51:26;18.40;81.60
23560;DHT22;11958;50.836;4.438;2023-05-07T08:54:02;18.30;81.70
23560;DHT22;11958;50.836;4.438;2023-05-07T08:56:30;18.30;82.30
23560;DHT22;11958;50.836;4.438;2023-05-07T08:58:56;18.50;81.60
23560;DHT22;11958;50.836;4.438;2023-05-07T09:01:27;18.60;81.20
23560;DHT22;11958;50.836;4.438;2023-05-07T09:20:44;19.10;79.80
23560;DHT22;11958;50.836;4.438;2023-05-07T09:40:05;18.40;82.90
23560;DHT22;11958;50.836;4.438;2023-05-07T09:42:35;18.50;83.00
23560;DHT22;11958;50.836;4.438;2023-05-07T09:45:00;18.40;82.50
23560;DHT22;11958;50.836;4.438;2023-05-07T09:47:28;18.60;82.50
23560;DHT22;11958;50.836;4.438;2023-05-07T09:49:56;18.70;82.40
23560;DHT22;11958;50.836;4.438;2023-05-07T09:52:26;18.90;82.10
23560;DHT22;11958;50.836;4.438;2023-05-07T09:54:58;19.00;81.80
23560;DHT22;11958;50.836;4.438;2023-05-07T09:57:25;19.40;79.40
23560;DHT22;11958;50.836;4.438;2023-05-07T09:59:53;19.30;79.90
23560;DHT22;11958;50.836;4.438;2023-05-07T10:02:20;19.20;80.10
23560;DHT22;11958;50.836;4.438;2023-05-07T10:04:48;19.20;80.70
23560;DHT22;11958;50.836;4.438;2023-05-07T10:07:14;19.10;79.90
23560;DHT22;11958;50.836;4.438;2023-05-07T10:09:42;19.50;78.10
23560;DHT22;11958;50.836;4.438;2023-05-07T10:12:13;19.60;78.80
23560;DHT22;11958;50.836;4.438;2023-05-07T10:14:47;19.50;77.50
23560;DHT22;11958;50.836;4.438;2023-05-07T10:17:16;19.00;78.70
23560;DHT22;11958;50.836;4.438;2023-05-07T10:19:47;18.80;80.30
23560;DHT22;11958;50.836;4.438;2023-05-07T10:22:16;18.80;80.80
23560;DHT22;11958;50.836;4.438;2023-05-07T10:24:42;18.80;81.30
23560;DHT22;11958;50.836;4.438;2023-05-07T10:27:12;18.80;81.70
23560;DHT22;11958;50.836;4.438;2023-05-07T10:35:03;18.90;81.80
23560;DHT22;11958;50.836;4.438;2023-05-07T10:37:31;18.80;81.40
23560;DHT22;11958;50.836;4.438;2023-05-07T10:40:00;18.80;81.90
23560;DHT22;11958;50.836;4.438;2023-05-07T10:42:26;18.80;82.10
23560;DHT22;11958;50.836;4.438;2023-05-07T10:44:52;18.80;82.60
23560;DHT22;11958;50.836;4.438;2023-05-07T10:47:20;18.90;82.50
23560;DHT22;11958;50.836;4.438;2023-05-07T10:52:13;19.00;81.70
23560;DHT22;11958;50.836;4.438;2023-05-07T10:57:48;19.10;81.80
23560;DHT22;11958;50.836;4.438;2023-05-07T11:01:04;19.30;81.80
23560;DHT22;11958;50.836;4.438;2023-05-07T11:03:05;19.50;81.20
23560;DHT22;11958;50.836;4.438;2023-05-07T11:05:35;19.40;81.20
23560;DHT22;11958;50.836;4.438;2023-05-07T11:08:02;19.50;81.30
23560;DHT22;11958;50.836;4.438;2023-05-07T11:13:48;20.10;76.60
23560;DHT22;11958;50.836;4.438;2023-05-07T11:17:01;20.00;78.20
23560;DHT22;11958;50.836;4.438;2023-05-07T11:25:03;20.00;77.40
23560;DHT22;11958;50.836;4.438;2023-05-07T11:27:29;20.00;77.70
23560;DHT22;11958;50.836;4.438;2023-05-07T11:30:06;20.10;76.60
23560;DHT22;11958;50.836;4.438;2023-05-07T11:32:38;19.90;76.70
23560;DHT22;11958;50.836;4.438;2023-05-07T11:35:04;19.90;77.20
23560;DHT22;11958;50.836;4.438;2023-05-07T11:37:30;20.20;76.60
23560;DHT22;11958;50.836;4.438;2023-05-07T11:40:07;20.40;76.60
23560;DHT22;11958;50.836;4.438;2023-05-07T11:42:40;20.30;77.30
23560;DHT22;11958;50.836;4.438;2023-05-07T11:45:08;20.40;77.40
23560;DHT22;11958;50.836;4.438;2023-05-07T11:47:34;20.20;77.90
23560;DHT22;11958;50.836;4.438;2023-05-07T11:50:05;20.00;78.40
23560;DHT22;11958;50.836;4.438;2023-05-07T11:52:33;20.00;80.10
23560;DHT22;11958;50.836;4.438;2023-05-07T11:54:59;20.30;79.60
23560;DHT22;11958;50.836;4.438;2023-05-07T11:57:26;20.50;78.30
23560;DHT22;11958;50.836;4.438;2023-05-07T11:59:56;20.70;78.00
23560;DHT22;11958;50.836;4.438;2023-05-07T12:02:22;20.80;78.20
23560;DHT22;11958;50.836;4.438;2023-05-07T12:04:53;21.30;75.60
23560;DHT22;11958;50.836;4.438;2023-05-07T12:07:24;21.50;74.50
23560;DHT22;11958;50.836;4.438;2023-05-07T12:09:53;21.60;70.60
23560;DHT22;11958;50.836;4.438;2023-05-07T12:12:19;21.60;70.90
23560;DHT22;11958;50.836;4.438;2023-05-07T12:14:45;20.90;71.00
23560;DHT22;11958;50.836;4.438;2023-05-07T12:17:13;20.80;75.30
23560;DHT22;11958;50.836;4.438;2023-05-07T12:19:40;20.90;73.70
23560;DHT22;11958;50.836;4.438;2023-05-07T12:22:10;21.10;72.00
23560;DHT22;11958;50.836;4.438;2023-05-07T12:24:58;20.90;72.20
23560;DHT22;11958;50.836;4.438;2023-05-07T12:27:24;20.70;76.00
23560;DHT22;11958;50.836;4.438;2023-05-07T12:30:03;20.80;74.90
23560;DHT22;11958;50.836;4.438;2023-05-07T12:32:29;21.10;73.40
23560;DHT22;11958;50.836;4.438;2023-05-07T12:34:55;21.00;74.50
23560;DHT22;11958;50.836;4.438;2023-05-07T12:37:24;21.10;74.60
23560;DHT22;11958;50.836;4.438;2023-05-07T12:40:16;21.20;72.90
23560;DHT22;11958;50.836;4.438;2023-05-07T12:42:41;21.30;71.90
23560;DHT22;11958;50.836;4.438;2023-05-07T12:45:13;21.20;73.00
23560;DHT22;11958;50.836;4.438;2023-05-07T12:47:39;21.20;73.70
23560;DHT22;11958;50.836;4.438;2023-05-07T12:50:07;21.30;73.80
23560;DHT22;11958;50.836;4.438;2023-05-07T12:52:34;21.30;73.30
23560;DHT22;11958;50.836;4.438;2023-05-07T12:55:09;21.40;73.00
23560;DHT22;11958;50.836;4.438;2023-05-07T12:57:50;21.50;71.00
23560;DHT22;11958;50.836;4.438;2023-05-07T13:00:17;21.00;73.00
23560;DHT22;11958;50.836;4.438;2023-05-07T13:02:43;20.90;73.70
23560;DHT22;11958;50.836;4.438;2023-05-07T13:05:12;21.20;73.90
23560;DHT22;11958;50.836;4.438;2023-05-07T13:07:38;21.20;74.20
23560;DHT22;11958;50.836;4.438;2023-05-07T13:10:05;21.10;72.80
23560;DHT22;11958;50.836;4.438;2023-05-07T13:12:30;21.10;74.00
23560;DHT22;11958;50.836;4.438;2023-05-07T13:14:59;21.20;73.70
23560;DHT22;11958;50.836;4.438;2023-05-07T13:17:31;20.90;73.70
23560;DHT22;11958;50.836;4.438;2023-05-07T13:20:06;21.00;73.90
23560;DHT22;11958;50.836;4.438;2023-05-07T13:22:33;21.40;71.80
23560;DHT22;11958;50.836;4.438;2023-05-07T13:24:59;20.90;74.70
23560;DHT22;11958;50.836;4.438;2023-05-07T13:27:25;21.00;74.80
23560;DHT22;11958;50.836;4.438;2023-05-07T13:29:51;21.20;74.90
23560;DHT22;11958;50.836;4.438;2023-05-07T13:32:17;21.00;74.30
23560;DHT22;11958;50.836;4.438;2023-05-07T13:34:43;21.10;74.70
23560;DHT22;11958;50.836;4.438;2023-05-07T13:37:37;21.10;74.10
23560;DHT22;11958;50.836;4.438;2023-05-07T13:40:04;21.00;75.40
23560;DHT22;11958;50.836;4.438;2023-05-07T13:42:30;20.80;77.40
23560;DHT22;11958;50.836;4.438;2023-05-07T13:44:56;20.90;75.30
23560;DHT22;11958;50.836;4.438;2023-05-07T13:47:22;21.30;72.80
23560;DHT22;11958;50.836;4.438;2023-05-07T13:49:48;21.20;74.30
23560;DHT22;11958;50.836;4.438;2023-05-07T13:52:16;21.20;74.30
23560;DHT22;11958;50.836;4.438;2023-05-07T13:54:44;20.90;75.00
23560;DHT22;11958;50.836;4.438;2023-05-07T13:57:10;20.80;76.60
23560;DHT22;11958;50.836;4.438;2023-05-07T13:59:36;20.40;75.60
23560;DHT22;11958;50.836;4.438;2023-05-07T14:02:01;20.60;76.60
23560;DHT22;11958;50.836;4.438;2023-05-07T14:04:27;20.60;75.40
23560;DHT22;11958;50.836;4.438;2023-05-07T14:07:02;21.00;74.70
23560;DHT22;11958;50.836;4.438;2023-05-07T14:09:27;21.50;73.50
23560;DHT22;11958;50.836;4.438;2023-05-07T14:11:53;21.10;73.20
23560;DHT22;11958;50.836;4.438;2023-05-07T14:14:19;21.10;73.90
23560;DHT22;11958;50.836;4.438;2023-05-07T14:16:45;20.60;75.80
23560;DHT22;11958;50.836;4.438;2023-05-07T14:19:11;20.60;76.20
23560;DHT22;11958;50.836;4.438;2023-05-07T14:21:37;20.90;74.60
23560;DHT22;11958;50.836;4.438;2023-05-07T14:24:03;21.00;74.10
23560;DHT22;11958;50.836;4.438;2023-05-07T14:26:29;20.80;75.70
23560;DHT22;11958;50.836;4.438;2023-05-07T14:28:55;20.80;75.60
23560;DHT22;11958;50.836;4.438;2023-05-07T14:35:35;20.60;76.50
23560;DHT22;11958;50.836;4.438;2023-05-07T14:41:59;20.90;75.70
23560;DHT22;11958;50.836;4.438;2023-05-07T14:44:47;20.50;77.90
23560;DHT22;11958;50.836;4.438;2023-05-07T14:47:14;20.30;77.90
23560;DHT22;11958;50.836;4.438;2023-05-07T14:49:40;20.60;78.20
23560;DHT22;11958;50.836;4.438;2023-05-07T14:52:07;20.80;73.90
23560;DHT22;11958;50.836;4.438;2023-05-07T14:54:35;20.80;76.40
23560;DHT22;11958;50.836;4.438;2023-05-07T14:57:01;20.80;76.30
23560;DHT22;11958;50.836;4.438;2023-05-07T14:59:27;20.70;76.10
23560;DHT22;11958;50.836;4.438;2023-05-07T15:01:54;20.70;76.20
23560;DHT22;11958;50.836;4.438;2023-05-07T15:06:55;20.90;74.90
23560;DHT22;11958;50.836;4.438;2023-05-07T15:09:21;20.60;76.80
23560;DHT22;11958;50.836;4.438;2023-05-07T15:11:47;20.70;75.80
23560;DHT22;11958;50.836;4.438;2023-05-07T15:14:13;20.40;76.70
23560;DHT22;11958;50.836;4.438;2023-05-07T15:16:38;20.00;77.10
23560;DHT22;11958;50.836;4.438;2023-05-07T15:19:04;19.90;78.60
23560;DHT22;11958;50.836;4.438;2023-05-07T15:21:30;20.00;78.80
23560;DHT22;11958;50.836;4.438;2023-05-07T15:23:58;19.80;79.40
23560;DHT22;11958;50.836;4.438;2023-05-07T15:26:23;19.60;80.80
23560;DHT22;11958;50.836;4.438;2023-05-07T15:28:50;19.50;81.00
23560;DHT22;11958;50.836;4.438;2023-05-07T15:31:15;19.70;80.50
23560;DHT22;11958;50.836;4.438;2023-05-07T15:33:42;19.40;80.20
23560;DHT22;11958;50.836;4.438;2023-05-07T15:36:08;19.40;81.20
23560;DHT22;11958;50.836;4.438;2023-05-07T15:38:34;19.60;81.10
23560;DHT22;11958;50.836;4.438;2023-05-07T15:41:00;19.90;80.20
23560;DHT22;11958;50.836;4.438;2023-05-07T15:43:26;20.20;78.00
23560;DHT22;11958;50.836;4.438;2023-05-07T15:45:52;19.80;79.10
23560;DHT22;11958;50.836;4.438;2023-05-07T15:48:19;19.70;79.70
23560;DHT22;11958;50.836;4.438;2023-05-07T15:50:45;19.60;80.90
23560;DHT22;11958;50.836;4.438;2023-05-07T15:53:11;20.10;78.70
23560;DHT22;11958;50.836;4.438;2023-05-07T15:55:39;20.20;78.40
23560;DHT22;11958;50.836;4.438;2023-05-07T15:58:05;20.10;79.00
23560;DHT22;11958;50.836;4.438;2023-05-07T16:00:31;20.00;78.40
23560;DHT22;11958;50.836;4.438;2023-05-07T16:02:57;19.70;79.90
23560;DHT22;11958;50.836;4.438;2023-05-07T16:05:23;19.80;79.60
23560;DHT22;11958;50.836;4.438;2023-05-07T16:07:49;20.00;78.20
23560;DHT22;11958;50.836;4.438;2023-05-07T16:10:15;20.00;79.20
23560;DHT22;11958;50.836;4.438;2023-05-07T16:12:40;19.70;79.50
23560;DHT22;11958;50.836;4.438;2023-05-07T16:15:06;19.50;81.20
23560;DHT22;11958;50.836;4.438;2023-05-07T16:17:33;19.40;80.80
23560;DHT22;11958;50.836;4.438;2023-05-07T16:19:58;19.50;79.90
23560;DHT22;11958;50.836;4.438;2023-05-07T16:22:24;19.40;80.20
23560;DHT22;11958;50.836;4.438;2023-05-07T16:24:51;19.20;81.20
23560;DHT22;11958;50.836;4.438;2023-05-07T16:27:16;19.00;80.90
23560;DHT22;11958;50.836;4.438;2023-05-07T16:29:42;19.10;81.90
23560;DHT22;11958;50.836;4.438;2023-05-07T16:32:10;19.30;80.80
23560;DHT22;11958;50.836;4.438;2023-05-07T16:37:39;19.50;81.40
23560;DHT22;11958;50.836;4.438;2023-05-07T16:42:51;19.60;80.80